Sds Green — ICOK — position and weather

sailwx.info

Track history (hours):
 
Tides and Currents Weather Stations Pressure Air Temp Water Temp Dewpoint Dewpoint Depression Visibility Wind Speed Wind Dir Waves Ship Positions

Sds Green

Last reported at 2015-Jun-30 22:31 UTC. Time now 2015-Jul-05 12:49 UTC.
Position N 36°46' E 003°05'.

Length 108 m; draft 6.9 m.

Type: Cargo ship. MMSI: 247292200.

Date/timePositionNaut miles runAvg speedWind from/ knotsBaromVisibWave heightAir tempDewpointWater temp
2015-Jun-30 22:31N 36°46' E 003°05'1 1.3
2015-Jun-30 21:33N 36°48' E 003°05'0 0.0
2015-Jun-30 20:27N 36°48' E 003°05'0 0.0
2015-Jun-30 19:30N 36°48' E 003°05'0 0.0
2015-Jun-30 18:33N 36°48' E 003°05'0 0.0
2015-Jun-30 17:33N 36°48' E 003°05'0 0.0
2015-Jun-30 16:33N 36°48' E 003°05'1 1.0
2015-Jun-30 15:33N 36°47' E 003°06'1 0.9
2015-Jun-30 14:27N 36°48' E 003°05'0 0.0
2015-Jun-30 13:33N 36°48' E 003°05'0 0.0
2015-Jun-30 12:33N 36°48' E 003°05'0 0.0
2015-Jun-30 11:33N 36°48' E 003°05'0 0.0
2015-Jun-30 10:33N 36°48' E 003°05'0 0.0
2015-Jun-30 09:33N 36°48' E 003°05'0 0.0
2015-Jun-30 08:33N 36°48' E 003°05'0 0.0
2015-Jun-30 07:33N 36°48' E 003°05'0 0.0
2015-Jun-30 06:33N 36°48' E 003°05'0 0.0
2015-Jun-30 05:33N 36°48' E 003°05'0 0.0
2015-Jun-30 04:33N 36°48' E 003°05'0 0.0
2015-Jun-30 03:21N 36°48' E 003°05'0 0.0
2015-Jun-30 02:30N 36°48' E 003°05'0 0.0
2015-Jun-30 01:24N 36°48' E 003°05'0 0.0
2015-Jun-30 00:30N 36°48' E 003°05'0 0.0
2015-Jun-29 23:30N 36°48' E 003°05'2 2.0
2015-Jun-29 22:33N 36°49' E 003°06'1010.1
2015-Jun-29 21:33N 36°50' E 002°54'1111.3
2015-Jun-29 20:33N 36°49' E 002°40'1111.4
2015-Jun-29 19:33N 36°47' E 002°26'1111.0
2015-Jun-29 18:33N 36°46' E 002°12'1111.0
2015-Jun-29 17:33N 36°44' E 001°58'1111.1
2015-Jun-29 16:33N 36°43' E 001°45'1111.2
2015-Jun-29 15:33N 36°41' E 001°31'1111.0
2015-Jun-29 14:33N 36°40' E 001°17'1110.7
2015-Jun-29 13:33N 36°39' E 001°04'1110.7
2015-Jun-29 12:33N 36°37' E 000°51'1110.9
2015-Jun-29 11:33N 36°36' E 000°37'1111.1
2015-Jun-29 10:33N 36°34' E 000°24'1111.2
2015-Jun-29 09:33N 36°33' E 000°10'1111.3
2015-Jun-29 08:34N 36°31' W 000°04'1111.1
2015-Jun-29 07:33N 36°30' W 000°18'1111.5
2015-Jun-29 06:33N 36°28' W 000°32'2211.1
2015-Jun-29 04:33N 36°26' W 000°59'1111.1
2015-Jun-29 03:33N 36°24' W 001°13'1111.0
2015-Jun-29 02:33N 36°23' W 001°27'1111.5
2015-Jun-29 01:33N 36°21' W 001°41'1111.3
2015-Jun-29 00:33N 36°20' W 001°55'1111.0
2015-Jun-28 23:33N 36°19' W 002°08'1111.1
2015-Jun-28 22:33N 36°17' W 002°22'1111.2
2015-Jun-28 21:33N 36°15' W 002°36'1111.4
2015-Jun-28 20:33N 36°14' W 002°50'1212.0
2015-Jun-28 19:33N 36°13' W 003°04'1311.9
2015-Jun-28 18:30N 36°11' W 003°20'9012.4
2015-Jun-28 11:13N 35°59' W 005°10'812.5
2015-Jun-28 10:33N 35°58' W 005°21'2410.2
2015-Jun-28 08:14N 35°54' W 005°49'6 9.2
2015-Jun-28 07:32N 35°54' W 005°57'14010.8
2015-Jun-27 18:33N 36°27' W 008°46'1111.2
2015-Jun-27 17:33N 36°30' W 008°59'1111.2
2015-Jun-27 16:33N 36°33' W 009°12'1111.0
2015-Jun-27 15:33N 36°39' W 009°24'1111.1
2015-Jun-27 14:33N 36°48' W 009°33'1111.0
2015-Jun-27 13:33N 36°59' W 009°36'1110.8
2015-Jun-27 12:34N 37°09' W 009°32'1111.5
2015-Jun-27 11:33N 37°20' W 009°27'1211.8
2015-Jun-27 10:33N 37°31' W 009°23'1211.7
2015-Jun-27 09:33N 37°42' W 009°18'1111.4
2015-Jun-27 08:33N 37°53' W 009°13'1111.5
2015-Jun-27 07:33N 38°04' W 009°09'1111.4
2015-Jun-27 06:33N 38°15' W 009°04'1111.3
2015-Jun-27 05:33N 38°25' W 008°59'5 4.9
2015-Jun-27 04:32N 38°29' W 008°56'0 0.0
2015-Jun-27 03:32N 38°29' W 008°56'0 0.0
2015-Jun-27 02:32N 38°29' W 008°56'0 0.0
2015-Jun-27 01:32N 38°29' W 008°56'0 0.0
2015-Jun-27 00:32N 38°29' W 008°56'0 0.0
2015-Jun-26 23:32N 38°29' W 008°56'0 0.0
2015-Jun-26 22:32N 38°29' W 008°56'0 0.0
2015-Jun-26 21:29N 38°29' W 008°56'0 0.0
2015-Jun-26 20:32N 38°29' W 008°56'0 0.0
2015-Jun-26 19:32N 38°29' W 008°56'0 0.0
2015-Jun-26 18:29N 38°29' W 008°56'0 0.0
2015-Jun-26 17:29N 38°29' W 008°56'0 0.0
2015-Jun-26 16:23N 38°29' W 008°56'0 0.0
2015-Jun-26 15:32N 38°29' W 008°56'0 0.0
2015-Jun-26 14:32N 38°29' W 008°56'0 0.0
2015-Jun-26 13:32N 38°29' W 008°56'0 0.0
2015-Jun-26 12:32N 38°29' W 008°56'0 0.0
2015-Jun-26 11:32N 38°29' W 008°56'0 0.0
2015-Jun-26 10:32N 38°29' W 008°56'0 0.0
2015-Jun-26 09:32N 38°29' W 008°56'0 0.0
2015-Jun-26 08:29N 38°29' W 008°56'0 0.0
2015-Jun-26 07:32N 38°29' W 008°56'0 0.0
2015-Jun-26 06:32N 38°29' W 008°56'0 0.0
2015-Jun-26 05:32N 38°29' W 008°56'0 0.0
2015-Jun-26 04:32N 38°29' W 008°56'0 0.0
2015-Jun-26 03:32N 38°29' W 008°56'0 0.0
2015-Jun-26 02:32N 38°29' W 008°56'0 0.0
2015-Jun-26 01:32N 38°29' W 008°56'0 0.0
2015-Jun-26 00:32N 38°29' W 008°56'0 0.0
2015-Jun-25 23:32N 38°29' W 008°56'0 0.0
2015-Jun-25 22:32N 38°29' W 008°56'0 0.0
2015-Jun-25 21:32N 38°29' W 008°56'0 0.0
2015-Jun-25 20:32N 38°29' W 008°56'0 0.0
2015-Jun-25 19:32N 38°29' W 008°56'0 0.0
2015-Jun-25 18:32N 38°29' W 008°56'0 0.0
2015-Jun-25 17:32N 38°29' W 008°56'0 0.0
2015-Jun-25 16:32N 38°29' W 008°56'0 0.0
2015-Jun-25 15:32N 38°29' W 008°56'0 0.0
2015-Jun-25 14:32N 38°29' W 008°56'0 0.0
2015-Jun-25 13:32N 38°29' W 008°56'0 0.0
2015-Jun-25 12:32N 38°29' W 008°56'0 0.0
2015-Jun-25 11:32N 38°29' W 008°56'0 0.0
2015-Jun-25 10:32N 38°29' W 008°56'0 0.0
2015-Jun-25 09:32N 38°29' W 008°56'0 0.0
2015-Jun-25 08:32N 38°29' W 008°56'0 0.0
2015-Jun-25 07:32N 38°29' W 008°56'0 0.0
2015-Jun-25 06:32N 38°29' W 008°56'0 0.0
2015-Jun-25 05:32N 38°29' W 008°56'0 0.0
2015-Jun-25 04:32N 38°29' W 008°56'0 0.0
2015-Jun-25 03:23N 38°29' W 008°56'0 0.0
2015-Jun-25 02:32N 38°30' W 008°56'2 1.0
2015-Jun-25 00:25N 38°30' W 008°54'0 0.0
2015-Jun-24 23:28N 38°30' W 008°54'0 0.0
2015-Jun-24 22:31N 38°30' W 008°54'0 0.0
2015-Jun-24 21:19N 38°30' W 008°54'0 0.0
2015-Jun-24 20:31N 38°30' W 008°54'0 0.0
2015-Jun-24 19:31N 38°30' W 008°53'0 0.0
2015-Jun-24 18:31N 38°31' W 008°53'0 0.0
2015-Jun-24 17:31N 38°30' W 008°53'0 0.0
2015-Jun-24 16:25N 38°31' W 008°53'0 0.0
2015-Jun-24 15:31N 38°31' W 008°53'0 0.0
2015-Jun-24 14:31N 38°31' W 008°54'0 0.0
2015-Jun-24 13:28N 38°31' W 008°54'0 0.0
2015-Jun-24 12:25N 38°31' W 008°54'0 0.1
2015-Jun-24 10:31N 38°30' W 008°54'0 0.1
2015-Jun-24 09:22N 38°30' W 008°54'0 0.0
2015-Jun-24 07:16N 38°30' W 008°54'0 0.0
2015-Jun-24 06:31N 38°30' W 008°53'0 0.0
2015-Jun-24 01:16N 38°31' W 008°53'0 0.0
2015-Jun-23 23:28N 38°30' W 008°54'0 0.0
2015-Jun-23 22:31N 38°30' W 008°54'0 0.0
2015-Jun-23 21:13N 38°30' W 008°54'0 0.0
2015-Jun-23 19:22N 38°30' W 008°53'0 0.0
2015-Jun-23 19:01N 38°31' W 008°53'0 0.0
2015-Jun-22 17:22N 38°31' W 008°53'0 0.0
2015-Jun-22 16:31N 38°31' W 008°54'0 0.0
2015-Jun-22 15:19N 38°31' W 008°54'0 0.1
2015-Jun-22 14:31N 38°31' W 008°54'0 0.0
2015-Jun-22 11:10N 38°31' W 008°54'0 0.0
2015-Jun-22 10:25N 38°31' W 008°54'0 0.1
2015-Jun-22 09:13N 38°31' W 008°54'0 0.1
2015-Jun-22 07:22N 38°31' W 008°54'0 0.0
2015-Jun-22 05:31N 38°31' W 008°54'0 0.0
2015-Jun-22 03:31N 38°31' W 008°54'0 0.0
2015-Jun-22 02:19N 38°31' W 008°54'0 0.0
2015-Jun-22 01:28N 38°31' W 008°54'0 0.0
2015-Jun-22 00:28N 38°31' W 008°54'0 0.0
2015-Jun-21 23:28N 38°31' W 008°54'0 0.0
2015-Jun-21 22:28N 38°31' W 008°54'0 0.1
2015-Jun-21 21:25N 38°31' W 008°54'0 0.1
2015-Jun-21 20:31N 38°31' W 008°54'0 0.1
2015-Jun-21 19:28N 38°31' W 008°54'0 0.0
2015-Jun-21 18:31N 38°31' W 008°54'0 0.0
2015-Jun-21 17:31N 38°31' W 008°54'0 0.0
2015-Jun-21 16:28N 38°31' W 008°54'0 0.0
2015-Jun-21 15:28N 38°31' W 008°54'0 0.0
2015-Jun-21 14:31N 38°31' W 008°54'0 0.0
2015-Jun-21 13:31N 38°31' W 008°54'0 0.0
2015-Jun-21 12:28N 38°31' W 008°54'0 0.0
2015-Jun-21 11:31N 38°31' W 008°54'0 0.0
2015-Jun-21 10:28N 38°31' W 008°54'0 0.0
2015-Jun-21 09:16N 38°31' W 008°54'0 0.0
2015-Jun-21 08:31N 38°31' W 008°54'0 0.0
2015-Jun-21 07:31N 38°31' W 008°54'0 0.1
2015-Jun-21 06:31N 38°31' W 008°54'0 0.0
2015-Jun-21 05:31N 38°31' W 008°54'0 0.0
2015-Jun-21 04:28N 38°31' W 008°54'0 0.0
2015-Jun-21 03:22N 38°31' W 008°54'0 0.0
2015-Jun-21 02:28N 38°31' W 008°54'0 0.0
2015-Jun-21 01:28N 38°31' W 008°54'0 0.0
2015-Jun-21 00:31N 38°31' W 008°54'0 0.1
2015-Jun-20 23:31N 38°31' W 008°54'0 0.0
2015-Jun-20 22:31N 38°31' W 008°54'  
Track history (hours):
 
Tides and Currents Weather Stations Pressure Air Temp Water Temp Dewpoint Dewpoint Depression Visibility Wind Speed Wind Dir Waves Ship Positions

Sds Green

Last reported at 2015-Jun-30 22:31 UTC. Time now 2015-Jul-05 12:49 UTC.
Position N 36°46' E 003°05'.

Length 108 m; draft 6.9 m.

Type: Cargo ship. MMSI: 247292200.

Date/timePositionNaut miles runAvg speedWind from/ knotsBaromVisibWave heightAir tempDewpointWater temp
2015-Jun-30 22:31N 36°46' E 003°05'1 1.3
2015-Jun-30 21:33N 36°48' E 003°05'0 0.0
2015-Jun-30 20:27N 36°48' E 003°05'0 0.0
2015-Jun-30 19:30N 36°48' E 003°05'0 0.0
2015-Jun-30 18:33N 36°48' E 003°05'0 0.0
2015-Jun-30 17:33N 36°48' E 003°05'0 0.0
2015-Jun-30 16:33N 36°48' E 003°05'1 1.0
2015-Jun-30 15:33N 36°47' E 003°06'1 0.9
2015-Jun-30 14:27N 36°48' E 003°05'0 0.0
2015-Jun-30 13:33N 36°48' E 003°05'0 0.0
2015-Jun-30 12:33N 36°48' E 003°05'0 0.0
2015-Jun-30 11:33N 36°48' E 003°05'0 0.0
2015-Jun-30 10:33N 36°48' E 003°05'0 0.0
2015-Jun-30 09:33N 36°48' E 003°05'0 0.0
2015-Jun-30 08:33N 36°48' E 003°05'0 0.0
2015-Jun-30 07:33N 36°48' E 003°05'0 0.0
2015-Jun-30 06:33N 36°48' E 003°05'0 0.0
2015-Jun-30 05:33N 36°48' E 003°05'0 0.0
2015-Jun-30 04:33N 36°48' E 003°05'0 0.0
2015-Jun-30 03:21N 36°48' E 003°05'0 0.0
2015-Jun-30 02:30N 36°48' E 003°05'0 0.0
2015-Jun-30 01:24N 36°48' E 003°05'0 0.0
2015-Jun-30 00:30N 36°48' E 003°05'0 0.0
2015-Jun-29 23:30N 36°48' E 003°05'2 2.0
2015-Jun-29 22:33N 36°49' E 003°06'1010.1
2015-Jun-29 21:33N 36°50' E 002°54'1111.3
2015-Jun-29 20:33N 36°49' E 002°40'1111.4
2015-Jun-29 19:33N 36°47' E 002°26'1111.0
2015-Jun-29 18:33N 36°46' E 002°12'1111.0
2015-Jun-29 17:33N 36°44' E 001°58'1111.1
2015-Jun-29 16:33N 36°43' E 001°45'1111.2
2015-Jun-29 15:33N 36°41' E 001°31'1111.0
2015-Jun-29 14:33N 36°40' E 001°17'1110.7
2015-Jun-29 13:33N 36°39' E 001°04'1110.7
2015-Jun-29 12:33N 36°37' E 000°51'1110.9
2015-Jun-29 11:33N 36°36' E 000°37'1111.1
2015-Jun-29 10:33N 36°34' E 000°24'1111.2
2015-Jun-29 09:33N 36°33' E 000°10'1111.3
2015-Jun-29 08:34N 36°31' W 000°04'1111.1
2015-Jun-29 07:33N 36°30' W 000°18'1111.5
2015-Jun-29 06:33N 36°28' W 000°32'2211.1
2015-Jun-29 04:33N 36°26' W 000°59'1111.1
2015-Jun-29 03:33N 36°24' W 001°13'1111.0
2015-Jun-29 02:33N 36°23' W 001°27'1111.5
2015-Jun-29 01:33N 36°21' W 001°41'1111.3
2015-Jun-29 00:33N 36°20' W 001°55'1111.0
2015-Jun-28 23:33N 36°19' W 002°08'1111.1
2015-Jun-28 22:33N 36°17' W 002°22'1111.2
2015-Jun-28 21:33N 36°15' W 002°36'1111.4
2015-Jun-28 20:33N 36°14' W 002°50'1212.0
2015-Jun-28 19:33N 36°13' W 003°04'1311.9
2015-Jun-28 18:30N 36°11' W 003°20'9012.4
2015-Jun-28 11:13N 35°59' W 005°10'812.5
2015-Jun-28 10:33N 35°58' W 005°21'2410.2
2015-Jun-28 08:14N 35°54' W 005°49'6 9.2
2015-Jun-28 07:32N 35°54' W 005°57'14010.8
2015-Jun-27 18:33N 36°27' W 008°46'1111.2
2015-Jun-27 17:33N 36°30' W 008°59'1111.2
2015-Jun-27 16:33N 36°33' W 009°12'1111.0
2015-Jun-27 15:33N 36°39' W 009°24'1111.1
2015-Jun-27 14:33N 36°48' W 009°33'1111.0
2015-Jun-27 13:33N 36°59' W 009°36'1110.8
2015-Jun-27 12:34N 37°09' W 009°32'1111.5
2015-Jun-27 11:33N 37°20' W 009°27'1211.8
2015-Jun-27 10:33N 37°31' W 009°23'1211.7
2015-Jun-27 09:33N 37°42' W 009°18'1111.4
2015-Jun-27 08:33N 37°53' W 009°13'1111.5
2015-Jun-27 07:33N 38°04' W 009°09'1111.4
2015-Jun-27 06:33N 38°15' W 009°04'1111.3
2015-Jun-27 05:33N 38°25' W 008°59'5 4.9
2015-Jun-27 04:32N 38°29' W 008°56'0 0.0
2015-Jun-27 03:32N 38°29' W 008°56'0 0.0
2015-Jun-27 02:32N 38°29' W 008°56'0 0.0
2015-Jun-27 01:32N 38°29' W 008°56'0 0.0
2015-Jun-27 00:32N 38°29' W 008°56'0 0.0
2015-Jun-26 23:32N 38°29' W 008°56'0 0.0
2015-Jun-26 22:32N 38°29' W 008°56'0 0.0
2015-Jun-26 21:29N 38°29' W 008°56'0 0.0
2015-Jun-26 20:32N 38°29' W 008°56'0 0.0
2015-Jun-26 19:32N 38°29' W 008°56'0 0.0
2015-Jun-26 18:29N 38°29' W 008°56'0 0.0
2015-Jun-26 17:29N 38°29' W 008°56'0 0.0
2015-Jun-26 16:23N 38°29' W 008°56'0 0.0
2015-Jun-26 15:32N 38°29' W 008°56'0 0.0
2015-Jun-26 14:32N 38°29' W 008°56'0 0.0
2015-Jun-26 13:32N 38°29' W 008°56'0 0.0
2015-Jun-26 12:32N 38°29' W 008°56'0 0.0
2015-Jun-26 11:32N 38°29' W 008°56'0 0.0
2015-Jun-26 10:32N 38°29' W 008°56'0 0.0
2015-Jun-26 09:32N 38°29' W 008°56'0 0.0
2015-Jun-26 08:29N 38°29' W 008°56'0 0.0
2015-Jun-26 07:32N 38°29' W 008°56'0 0.0
2015-Jun-26 06:32N 38°29' W 008°56'0 0.0
2015-Jun-26 05:32N 38°29' W 008°56'0 0.0
2015-Jun-26 04:32N 38°29' W 008°56'0 0.0
2015-Jun-26 03:32N 38°29' W 008°56'0 0.0
2015-Jun-26 02:32N 38°29' W 008°56'0 0.0
2015-Jun-26 01:32N 38°29' W 008°56'0 0.0
2015-Jun-26 00:32N 38°29' W 008°56'0 0.0
2015-Jun-25 23:32N 38°29' W 008°56'0 0.0
2015-Jun-25 22:32N 38°29' W 008°56'0 0.0
2015-Jun-25 21:32N 38°29' W 008°56'0 0.0
2015-Jun-25 20:32N 38°29' W 008°56'0 0.0
2015-Jun-25 19:32N 38°29' W 008°56'0 0.0
2015-Jun-25 18:32N 38°29' W 008°56'0 0.0
2015-Jun-25 17:32N 38°29' W 008°56'0 0.0
2015-Jun-25 16:32N 38°29' W 008°56'0 0.0
2015-Jun-25 15:32N 38°29' W 008°56'0 0.0
2015-Jun-25 14:32N 38°29' W 008°56'0 0.0
2015-Jun-25 13:32N 38°29' W 008°56'0 0.0
2015-Jun-25 12:32N 38°29' W 008°56'0 0.0
2015-Jun-25 11:32N 38°29' W 008°56'0 0.0
2015-Jun-25 10:32N 38°29' W 008°56'0 0.0
2015-Jun-25 09:32N 38°29' W 008°56'0 0.0
2015-Jun-25 08:32N 38°29' W 008°56'0 0.0
2015-Jun-25 07:32N 38°29' W 008°56'0 0.0
2015-Jun-25 06:32N 38°29' W 008°56'0 0.0
2015-Jun-25 05:32N 38°29' W 008°56'0 0.0
2015-Jun-25 04:32N 38°29' W 008°56'0 0.0
2015-Jun-25 03:23N 38°29' W 008°56'0 0.0
2015-Jun-25 02:32N 38°30' W 008°56'2 1.0
2015-Jun-25 00:25N 38°30' W 008°54'0 0.0
2015-Jun-24 23:28N 38°30' W 008°54'0 0.0
2015-Jun-24 22:31N 38°30' W 008°54'0 0.0
2015-Jun-24 21:19N 38°30' W 008°54'0 0.0
2015-Jun-24 20:31N 38°30' W 008°54'0 0.0
2015-Jun-24 19:31N 38°30' W 008°53'0 0.0
2015-Jun-24 18:31N 38°31' W 008°53'0 0.0
2015-Jun-24 17:31N 38°30' W 008°53'0 0.0
2015-Jun-24 16:25N 38°31' W 008°53'0 0.0
2015-Jun-24 15:31N 38°31' W 008°53'0 0.0
2015-Jun-24 14:31N 38°31' W 008°54'0 0.0
2015-Jun-24 13:28N 38°31' W 008°54'0 0.0
2015-Jun-24 12:25N 38°31' W 008°54'0 0.1
2015-Jun-24 10:31N 38°30' W 008°54'0 0.1
2015-Jun-24 09:22N 38°30' W 008°54'0 0.0
2015-Jun-24 07:16N 38°30' W 008°54'0 0.0
2015-Jun-24 06:31N 38°30' W 008°53'0 0.0
2015-Jun-24 01:16N 38°31' W 008°53'0 0.0
2015-Jun-23 23:28N 38°30' W 008°54'0 0.0
2015-Jun-23 22:31N 38°30' W 008°54'0 0.0
2015-Jun-23 21:13N 38°30' W 008°54'0 0.0
2015-Jun-23 19:22N 38°30' W 008°53'0 0.0
2015-Jun-23 19:01N 38°31' W 008°53'0 0.0
2015-Jun-22 17:22N 38°31' W 008°53'0 0.0
2015-Jun-22 16:31N 38°31' W 008°54'0 0.0
2015-Jun-22 15:19N 38°31' W 008°54'0 0.1
2015-Jun-22 14:31N 38°31' W 008°54'0 0.0
2015-Jun-22 11:10N 38°31' W 008°54'0 0.0
2015-Jun-22 10:25N 38°31' W 008°54'0 0.1
2015-Jun-22 09:13N 38°31' W 008°54'0 0.1
2015-Jun-22 07:22N 38°31' W 008°54'0 0.0
2015-Jun-22 05:31N 38°31' W 008°54'0 0.0
2015-Jun-22 03:31N 38°31' W 008°54'0 0.0
2015-Jun-22 02:19N 38°31' W 008°54'0 0.0
2015-Jun-22 01:28N 38°31' W 008°54'0 0.0
2015-Jun-22 00:28N 38°31' W 008°54'0 0.0
2015-Jun-21 23:28N 38°31' W 008°54'0 0.0
2015-Jun-21 22:28N 38°31' W 008°54'0 0.1
2015-Jun-21 21:25N 38°31' W 008°54'0 0.1
2015-Jun-21 20:31N 38°31' W 008°54'0 0.1
2015-Jun-21 19:28N 38°31' W 008°54'0 0.0
2015-Jun-21 18:31N 38°31' W 008°54'0 0.0
2015-Jun-21 17:31N 38°31' W 008°54'0 0.0
2015-Jun-21 16:28N 38°31' W 008°54'0 0.0
2015-Jun-21 15:28N 38°31' W 008°54'0 0.0
2015-Jun-21 14:31N 38°31' W 008°54'0 0.0
2015-Jun-21 13:31N 38°31' W 008°54'0 0.0
2015-Jun-21 12:28N 38°31' W 008°54'0 0.0
2015-Jun-21 11:31N 38°31' W 008°54'0 0.0
2015-Jun-21 10:28N 38°31' W 008°54'0 0.0
2015-Jun-21 09:16N 38°31' W 008°54'0 0.0
2015-Jun-21 08:31N 38°31' W 008°54'0 0.0
2015-Jun-21 07:31N 38°31' W 008°54'0 0.1
2015-Jun-21 06:31N 38°31' W 008°54'0 0.0
2015-Jun-21 05:31N 38°31' W 008°54'0 0.0
2015-Jun-21 04:28N 38°31' W 008°54'0 0.0
2015-Jun-21 03:22N 38°31' W 008°54'0 0.0
2015-Jun-21 02:28N 38°31' W 008°54'0 0.0
2015-Jun-21 01:28N 38°31' W 008°54'0 0.0
2015-Jun-21 00:31N 38°31' W 008°54'0 0.1
2015-Jun-20 23:31N 38°31' W 008°54'0 0.0
2015-Jun-20 22:31N 38°31' W 008°54'  

Dump ship's entire track history